sensor_id;sensor_type;location;lat;lon;timestamp;pressure;altitude;pressure_sealevel;temperature;humidity
69574;BME280;62840;52.366;5.980;2023-03-21T00:00:18;101512.09;;;10.43;75.55
69574;BME280;62840;52.366;5.980;2023-03-21T00:02:47;101510.28;;;10.43;75.35
69574;BME280;62840;52.366;5.980;2023-03-21T00:05:13;101511.16;;;10.44;75.42
69574;BME280;62840;52.366;5.980;2023-03-21T00:07:39;101505.81;;;10.44;75.46
69574;BME280;62840;52.366;5.980;2023-03-21T00:10:05;101505.81;;;10.44;75.58
69574;BME280;62840;52.366;5.980;2023-03-21T00:12:31;101505.81;;;10.44;75.47
69574;BME280;62840;52.366;5.980;2023-03-21T00:14:57;101506.84;;;10.41;75.50
69574;BME280;62840;52.366;5.980;2023-03-21T00:17:23;101502.41;;;10.42;75.45
69574;BME280;62840;52.366;5.980;2023-03-21T00:19:52;101499.59;;;10.43;75.44
69574;BME280;62840;52.366;5.980;2023-03-21T00:22:18;101502.19;;;10.45;75.42
69574;BME280;62840;52.366;5.980;2023-03-21T00:24:44;101500.47;;;10.44;75.49
69574;BME280;62840;52.366;5.980;2023-03-21T00:27:09;101504.84;;;10.45;75.55
69574;BME280;62840;52.366;5.980;2023-03-21T00:29:35;101505.81;;;10.44;75.35
69574;BME280;62840;52.366;5.980;2023-03-21T00:32:01;101503.16;;;10.44;75.54
69574;BME280;62840;52.366;5.980;2023-03-21T00:34:27;101500.47;;;10.44;75.50
69574;BME280;62840;52.366;5.980;2023-03-21T00:36:55;101491.59;;;10.43;75.43
69574;BME280;62840;52.366;5.980;2023-03-21T00:39:21;101497.06;;;10.42;75.52
69574;BME280;62840;52.366;5.980;2023-03-21T00:41:46;101488.31;;;10.40;75.49
69574;BME280;62840;52.366;5.980;2023-03-21T00:44:12;101487.34;;;10.41;75.43
69574;BME280;62840;52.366;5.980;2023-03-21T00:46:38;101484.69;;;10.41;75.64
69574;BME280;62840;52.366;5.980;2023-03-21T00:49:03;101490.88;;;10.41;75.55
69574;BME280;62840;52.366;5.980;2023-03-21T00:51:29;101482.75;;;10.43;75.62
69574;BME280;62840;52.366;5.980;2023-03-21T00:53:58;101482.75;;;10.43;75.50
69574;BME280;62840;52.366;5.980;2023-03-21T00:56:23;101476.59;;;10.42;75.59
69574;BME280;62840;52.366;5.980;2023-03-21T00:58:49;101482.03;;;10.41;75.42
69574;BME280;62840;52.366;5.980;2023-03-21T01:01:15;101470.59;;;10.39;75.60
69574;BME280;62840;52.366;5.980;2023-03-21T01:03:41;101475.94;;;10.39;75.61
69574;BME280;62840;52.366;5.980;2023-03-21T01:06:08;101465.41;;;10.37;75.61
69574;BME280;62840;52.366;5.980;2023-03-21T01:08:36;101464.31;;;10.40;75.53
69574;BME280;62840;52.366;5.980;2023-03-21T01:11:08;101466.00;;;10.41;75.55
69574;BME280;62840;52.366;5.980;2023-03-21T01:13:37;101458.03;;;10.41;75.51
69574;BME280;62840;52.366;5.980;2023-03-21T01:16:04;101457.06;;;10.42;75.49
69574;BME280;62840;52.366;5.980;2023-03-21T01:18:33;101450.03;;;10.41;75.62
69574;BME280;62840;52.366;5.980;2023-03-21T01:21:01;101457.19;;;10.40;75.39
69574;BME280;62840;52.366;5.980;2023-03-21T01:23:31;101452.69;;;10.41;75.54
69574;BME280;62840;52.366;5.980;2023-03-21T01:25:57;101451.84;;;10.40;75.49
69574;BME280;62840;52.366;5.980;2023-03-21T01:28:27;101447.34;;;10.41;75.53
69574;BME280;62840;52.366;5.980;2023-03-21T01:30:54;101440.34;;;10.40;75.37
69574;BME280;62840;52.366;5.980;2023-03-21T01:33:21;101445.66;;;10.40;75.49
69574;BME280;62840;52.366;5.980;2023-03-21T01:35:47;101452.69;;;10.41;75.59
69574;BME280;62840;52.366;5.980;2023-03-21T01:38:13;101432.44;;;10.38;75.62
69574;BME280;62840;52.366;5.980;2023-03-21T01:40:40;101443.94;;;10.39;75.71
69574;BME280;62840;52.366;5.980;2023-03-21T01:43:18;101442.25;;;10.38;75.45
69574;BME280;62840;52.366;5.980;2023-03-21T01:46:21;101431.59;;;10.38;75.78
69574;BME280;62840;52.366;5.980;2023-03-21T01:48:58;101439.69;;;10.36;75.63
69574;BME280;62840;52.366;5.980;2023-03-21T01:51:28;101441.50;;;10.36;75.58
69574;BME280;62840;52.366;5.980;2023-03-21T01:53:58;101440.53;;;10.37;75.67
69574;BME280;62840;52.366;5.980;2023-03-21T01:56:27;101433.50;;;10.36;75.56
69574;BME280;62840;52.366;5.980;2023-03-21T01:58:58;101428.19;;;10.36;75.52
69574;BME280;62840;52.366;5.980;2023-03-21T02:01:32;101422.84;;;10.36;75.41
69574;BME280;62840;52.366;5.980;2023-03-21T02:03:58;101419.34;;;10.35;75.63
69574;BME280;62840;52.366;5.980;2023-03-21T02:06:31;101420.28;;;10.34;75.69
69574;BME280;62840;52.366;5.980;2023-03-21T02:09:06;101410.69;;;10.32;75.61
69574;BME280;62840;52.366;5.980;2023-03-21T02:11:36;101411.44;;;10.34;75.73
69574;BME280;62840;52.366;5.980;2023-03-21T02:14:03;101414.09;;;10.34;75.71
69574;BME280;62840;52.366;5.980;2023-03-21T02:16:42;101408.78;;;10.34;75.67
69574;BME280;62840;52.366;5.980;2023-03-21T02:19:45;101402.47;;;10.35;75.58
69574;BME280;62840;52.366;5.980;2023-03-21T02:22:46;101398.09;;;10.34;75.58
69574;BME280;62840;52.366;5.980;2023-03-21T02:25:49;101392.03;;;10.32;75.56
69574;BME280;62840;52.366;5.980;2023-03-21T02:28:36;101388.41;;;10.33;75.64
69574;BME280;62840;52.366;5.980;2023-03-21T02:31:18;101387.44;;;10.34;75.54
69574;BME280;62840;52.366;5.980;2023-03-21T02:34:15;101382.09;;;10.34;75.55
69574;BME280;62840;52.366;5.980;2023-03-21T02:37:21;101380.41;;;10.33;75.64
69574;BME280;62840;52.366;5.980;2023-03-21T02:39:54;101383.09;;;10.33;75.52
69574;BME280;62840;52.366;5.980;2023-03-21T02:42:42;101378.69;;;10.32;75.66
69574;BME280;62840;52.366;5.980;2023-03-21T02:45:19;101372.63;;;10.30;75.83
69574;BME280;62840;52.366;5.980;2023-03-21T02:47:52;101361.97;;;10.30;75.68
69574;BME280;62840;52.366;5.980;2023-03-21T02:50:26;101372.75;;;10.28;75.76
69574;BME280;62840;52.366;5.980;2023-03-21T02:53:02;101369.97;;;10.30;75.62
69574;BME280;62840;52.366;5.980;2023-03-21T02:55:32;101363.69;;;10.31;75.68
69574;BME280;62840;52.366;5.980;2023-03-21T02:58:02;101362.94;;;10.29;75.78
69574;BME280;62840;52.366;5.980;2023-03-21T03:00:32;101368.28;;;10.29;75.53
69574;BME280;62840;52.366;5.980;2023-03-21T03:02:59;101357.47;;;10.30;75.82
69574;BME280;62840;52.366;5.980;2023-03-21T03:05:27;101351.31;;;10.30;75.65
69574;BME280;62840;52.366;5.980;2023-03-21T03:08:09;101364.63;;;10.30;75.69
69574;BME280;62840;52.366;5.980;2023-03-21T03:10:56;101360.28;;;10.29;75.72
69574;BME280;62840;52.366;5.980;2023-03-21T03:13:45;101355.88;;;10.28;75.52
69574;BME280;62840;52.366;5.980;2023-03-21T03:16:30;101360.47;;;10.25;75.79
69574;BME280;62840;52.366;5.980;2023-03-21T03:19:07;101357.81;;;10.25;75.75
69574;BME280;62840;52.366;5.980;2023-03-21T03:21:41;101357.81;;;10.25;75.86
69574;BME280;62840;52.366;5.980;2023-03-21T03:24:19;101359.75;;;10.23;75.79
69574;BME280;62840;52.366;5.980;2023-03-21T03:26:55;101363.38;;;10.22;75.80
69574;BME280;62840;52.366;5.980;2023-03-21T03:29:24;101362.53;;;10.22;75.97
69574;BME280;62840;52.366;5.980;2023-03-21T03:31:57;101351.97;;;10.20;75.76
69574;BME280;62840;52.366;5.980;2023-03-21T03:34:29;101360.81;;;10.21;75.78
69574;BME280;62840;52.366;5.980;2023-03-21T03:36:58;101356.34;;;10.21;75.65
69574;BME280;62840;52.366;5.980;2023-03-21T03:39:34;101352.72;;;10.22;75.66
69574;BME280;62840;52.366;5.980;2023-03-21T03:42:12;101349.06;;;10.23;75.70
69574;BME280;62840;52.366;5.980;2023-03-21T03:44:42;101347.38;;;10.22;75.70
69574;BME280;62840;52.366;5.980;2023-03-21T03:47:10;101349.31;;;10.20;75.79
69574;BME280;62840;52.366;5.980;2023-03-21T03:49:45;101352.81;;;10.21;75.78
69574;BME280;62840;52.366;5.980;2023-03-21T03:52:19;101340.38;;;10.21;75.85
69574;BME280;62840;52.366;5.980;2023-03-21T03:54:51;101345.69;;;10.21;75.69
69574;BME280;62840;52.366;5.980;2023-03-21T03:57:18;101336.97;;;10.19;75.68
69574;BME280;62840;52.366;5.980;2023-03-21T03:59:45;101342.28;;;10.19;75.84
69574;BME280;62840;52.366;5.980;2023-03-21T04:02:12;101335.97;;;10.20;75.73
69574;BME280;62840;52.366;5.980;2023-03-21T04:04:38;101333.31;;;10.20;75.75
69574;BME280;62840;52.366;5.980;2023-03-21T04:07:05;101331.63;;;10.19;75.79
69574;BME280;62840;52.366;5.980;2023-03-21T04:09:31;101327.97;;;10.20;75.73
69574;BME280;62840;52.366;5.980;2023-03-21T04:11:59;101334.06;;;10.22;75.67
69574;BME280;62840;52.366;5.980;2023-03-21T04:14:25;101338.53;;;10.22;75.64
69574;BME280;62840;52.366;5.980;2023-03-21T04:16:51;101332.38;;;10.21;75.69
69574;BME280;62840;52.366;5.980;2023-03-21T04:19:17;101333.31;;;10.20;75.68
69574;BME280;62840;52.366;5.980;2023-03-21T04:21:43;101341.94;;;10.24;75.72
69574;BME280;62840;52.366;5.980;2023-03-21T04:24:09;101336.72;;;10.22;75.76
69574;BME280;62840;52.366;5.980;2023-03-21T04:26:35;101333.09;;;10.23;75.73
69574;BME280;62840;52.366;5.980;2023-03-21T04:29:03;101336.72;;;10.22;75.71
69574;BME280;62840;52.366;5.980;2023-03-21T04:31:30;101333.97;;;10.24;75.53
69574;BME280;62840;52.366;5.980;2023-03-21T04:33:57;101332.13;;;10.24;75.75
69574;BME280;62840;52.366;5.980;2023-03-21T04:36:23;101325.81;;;10.25;75.59
69574;BME280;62840;52.366;5.980;2023-03-21T04:38:49;101325.81;;;10.25;75.68
69574;BME280;62840;52.366;5.980;2023-03-21T04:41:15;101327.53;;;10.27;75.55
69574;BME280;62840;52.366;5.980;2023-03-21T04:43:41;101325.09;;;10.23;75.80
69574;BME280;62840;52.366;5.980;2023-03-21T04:46:09;101328.63;;;10.24;75.70
69574;BME280;62840;52.366;5.980;2023-03-21T04:48:35;101322.41;;;10.23;75.68
69574;BME280;62840;52.366;5.980;2023-03-21T04:51:01;101326.06;;;10.22;75.75
69574;BME280;62840;52.366;5.980;2023-03-21T04:53:27;101322.41;;;10.23;75.78
69574;BME280;62840;52.366;5.980;2023-03-21T04:55:52;101319.03;;;10.21;75.69
69574;BME280;62840;52.366;5.980;2023-03-21T04:58:18;101317.31;;;10.20;75.63
69574;BME280;62840;52.366;5.980;2023-03-21T05:00:44;101309.31;;;10.20;75.64
69574;BME280;62840;52.366;5.980;2023-03-21T05:03:12;101315.50;;;10.21;75.80
69574;BME280;62840;52.366;5.980;2023-03-21T05:05:38;101313.91;;;10.18;75.75
69574;BME280;62840;52.366;5.980;2023-03-21T05:08:04;101315.63;;;10.19;75.72
69574;BME280;62840;52.366;5.980;2023-03-21T05:10:30;101315.75;;;10.18;75.71
69574;BME280;62840;52.366;5.980;2023-03-21T05:12:56;101316.72;;;10.17;75.81
69574;BME280;62840;52.366;5.980;2023-03-21T05:15:22;101311.50;;;10.15;75.89
69574;BME280;62840;52.366;5.980;2023-03-21T05:17:48;101319.47;;;10.15;75.87
69574;BME280;62840;52.366;5.980;2023-03-21T05:20:16;101315.00;;;10.16;75.84
69574;BME280;62840;52.366;5.980;2023-03-21T05:22:42;101314.16;;;10.15;75.78
69574;BME280;62840;52.366;5.980;2023-03-21T05:25:09;101306.91;;;10.17;75.69
69574;BME280;62840;52.366;5.980;2023-03-21T05:27:35;101306.25;;;10.14;75.71
69574;BME280;62840;52.366;5.980;2023-03-21T05:30:04;101310.75;;;10.13;75.81
69574;BME280;62840;52.366;5.980;2023-03-21T05:32:31;101317.03;;;10.12;75.81
69574;BME280;62840;52.366;5.980;2023-03-21T05:34:57;101310.75;;;10.13;75.87
69574;BME280;62840;52.366;5.980;2023-03-21T05:37:25;101308.19;;;10.12;75.73
69574;BME280;62840;52.366;5.980;2023-03-21T05:39:52;101310.75;;;10.13;75.79
69574;BME280;62840;52.366;5.980;2023-03-21T05:42:18;101316.91;;;10.14;75.75
69574;BME280;62840;52.366;5.980;2023-03-21T05:44:44;101315.22;;;10.13;75.90
69574;BME280;62840;52.366;5.980;2023-03-21T05:47:10;101316.06;;;10.13;75.83
69574;BME280;62840;52.366;5.980;2023-03-21T05:49:36;101317.75;;;10.14;75.82
69574;BME280;62840;52.366;5.980;2023-03-21T05:52:03;101314.16;;;10.15;75.64
69574;BME280;62840;52.366;5.980;2023-03-21T05:54:31;101317.75;;;10.14;75.73
69574;BME280;62840;52.366;5.980;2023-03-21T05:56:57;101317.75;;;10.14;75.86
69574;BME280;62840;52.366;5.980;2023-03-21T05:59:23;101316.06;;;10.13;75.62
69574;BME280;62840;52.366;5.980;2023-03-21T06:01:49;101314.34;;;10.12;75.66
69574;BME280;62840;52.366;5.980;2023-03-21T06:04:14;101318.00;;;10.11;75.66
69574;BME280;62840;52.366;5.980;2023-03-21T06:06:40;101320.66;;;10.11;75.73
69574;BME280;62840;52.366;5.980;2023-03-21T06:09:06;101318.09;;;10.10;75.73
69574;BME280;62840;52.366;5.980;2023-03-21T06:11:36;101316.31;;;10.10;75.74
69574;BME280;62840;52.366;5.980;2023-03-21T06:14:03;101317.16;;;10.11;75.71
69574;BME280;62840;52.366;5.980;2023-03-21T06:16:29;101321.66;;;10.10;75.76
69574;BME280;62840;52.366;5.980;2023-03-21T06:18:55;101318.25;;;10.08;75.58
69574;BME280;62840;52.366;5.980;2023-03-21T06:21:21;101311.19;;;10.07;75.54
69574;BME280;62840;52.366;5.980;2023-03-21T06:23:47;101308.53;;;10.07;75.81
69574;BME280;62840;52.366;5.980;2023-03-21T06:26:13;101312.91;;;10.08;75.65
69574;BME280;62840;52.366;5.980;2023-03-21T06:28:41;101302.25;;;10.08;75.59
69574;BME280;62840;52.366;5.980;2023-03-21T06:31:07;101315.69;;;10.07;75.68
69574;BME280;62840;52.366;5.980;2023-03-21T06:33:33;101319.91;;;10.09;75.62
69574;BME280;62840;52.366;5.980;2023-03-21T06:35:59;101310.97;;;10.10;75.79
69574;BME280;62840;52.366;5.980;2023-03-21T06:38:25;101318.09;;;10.10;75.56
69574;BME280;62840;52.366;5.980;2023-03-21T06:40:51;101314.34;;;10.12;75.80
69574;BME280;62840;52.366;5.980;2023-03-21T06:43:17;101321.41;;;10.13;75.65
69574;BME280;62840;52.366;5.980;2023-03-21T06:45:45;101315.09;;;10.14;75.63
69574;BME280;62840;52.366;5.980;2023-03-21T06:48:11;101314.25;;;10.14;75.54
69574;BME280;62840;52.366;5.980;2023-03-21T06:50:37;101315.84;;;10.16;75.51
69574;BME280;62840;52.366;5.980;2023-03-21T06:53:03;101314.91;;;10.17;75.52
69574;BME280;62840;52.366;5.980;2023-03-21T06:55:28;101316.59;;;10.18;75.72
69574;BME280;62840;52.366;5.980;2023-03-21T06:57:55;101317.31;;;10.20;75.54
69574;BME280;62840;52.366;5.980;2023-03-21T07:00:22;101317.31;;;10.20;75.76
69574;BME280;62840;52.366;5.980;2023-03-21T07:02:51;101323.50;;;10.21;75.66
69574;BME280;62840;52.366;5.980;2023-03-21T07:05:17;101318.91;;;10.23;75.52
69574;BME280;62840;52.366;5.980;2023-03-21T07:07:43;101321.56;;;10.23;75.63
69574;BME280;62840;52.366;5.980;2023-03-21T07:10:10;101321.47;;;10.24;75.55
69574;BME280;62840;52.366;5.980;2023-03-21T07:12:36;101323.16;;;10.25;75.66
69574;BME280;62840;52.366;5.980;2023-03-21T07:15:03;101319.53;;;10.27;75.60
69574;BME280;62840;52.366;5.980;2023-03-21T07:17:30;101314.97;;;10.29;75.64
69574;BME280;62840;52.366;5.980;2023-03-21T07:19:58;101321.97;;;10.30;75.66
69574;BME280;62840;52.366;5.980;2023-03-21T07:22:24;101320.28;;;10.29;75.61
69574;BME280;62840;52.366;5.980;2023-03-21T07:24:50;101316.63;;;10.30;75.51
69574;BME280;62840;52.366;5.980;2023-03-21T07:27:17;101323.69;;;10.31;75.57
69574;BME280;62840;52.366;5.980;2023-03-21T07:29:43;101315.69;;;10.31;75.47
69574;BME280;62840;52.366;5.980;2023-03-21T07:32:09;101317.47;;;10.30;75.41
69574;BME280;62840;52.366;5.980;2023-03-21T07:34:35;101316.44;;;10.33;75.64
69574;BME280;62840;52.366;5.980;2023-03-21T07:37:04;101318.97;;;10.34;75.43
69574;BME280;62840;52.366;5.980;2023-03-21T07:39:30;101311.31;;;10.30;75.35
69574;BME280;62840;52.366;5.980;2023-03-21T07:41:55;101318.97;;;10.34;75.43
69574;BME280;62840;52.366;5.980;2023-03-21T07:44:21;101319.81;;;10.35;75.43
69574;BME280;62840;52.366;5.980;2023-03-21T07:46:48;101317.88;;;10.37;75.42
69574;BME280;62840;52.366;5.980;2023-03-21T07:49:14;101312.56;;;10.37;75.55
69574;BME280;62840;52.366;5.980;2023-03-21T07:51:40;101315.97;;;10.39;75.62
69574;BME280;62840;52.366;5.980;2023-03-21T07:54:09;101312.34;;;10.40;75.49
69574;BME280;62840;52.366;5.980;2023-03-21T07:56:35;101311.50;;;10.39;75.39
69574;BME280;62840;52.366;5.980;2023-03-21T07:59:00;101314.03;;;10.41;75.65
69574;BME280;62840;52.366;5.980;2023-03-21T08:01:26;101316.59;;;10.42;75.42
69574;BME280;62840;52.366;5.980;2023-03-21T08:03:52;101318.19;;;10.45;75.45
69574;BME280;62840;52.366;5.980;2023-03-21T08:06:18;101306.03;;;10.41;75.44
69574;BME280;62840;52.366;5.980;2023-03-21T08:08:47;101318.06;;;10.46;75.59
69574;BME280;62840;52.366;5.980;2023-03-21T08:11:15;101315.25;;;10.48;75.41
69574;BME280;62840;52.366;5.980;2023-03-21T08:13:41;101318.66;;;10.50;75.48
69574;BME280;62840;52.366;5.980;2023-03-21T08:16:07;101312.38;;;10.51;75.37
69574;BME280;62840;52.366;5.980;2023-03-21T08:18:33;101315.06;;;10.51;75.51
69574;BME280;62840;52.366;5.980;2023-03-21T08:20:59;101307.78;;;10.53;75.48
69574;BME280;62840;52.366;5.980;2023-03-21T08:23:25;101304.16;;;10.54;75.44
69574;BME280;62840;52.366;5.980;2023-03-21T08:25:51;101304.16;;;10.54;75.35
69574;BME280;62840;52.366;5.980;2023-03-21T08:28:20;101300.53;;;10.55;75.45
69574;BME280;62840;52.366;5.980;2023-03-21T08:30:47;101308.53;;;10.55;75.34
69574;BME280;62840;52.366;5.980;2023-03-21T08:33:14;101298.06;;;10.52;75.35
69574;BME280;62840;52.366;5.980;2023-03-21T08:35:40;101298.81;;;10.54;75.46
69574;BME280;62840;52.366;5.980;2023-03-21T08:38:06;101288.38;;;10.51;75.45
69574;BME280;62840;52.366;5.980;2023-03-21T08:40:32;101284.53;;;10.55;75.54
69574;BME280;62840;52.366;5.980;2023-03-21T08:42:58;101287.94;;;10.57;75.57
69574;BME280;62840;52.366;5.980;2023-03-21T08:45:27;101282.59;;;10.57;75.54
69574;BME280;62840;52.366;5.980;2023-03-21T08:47:54;101283.09;;;10.62;75.54
69574;BME280;62840;52.366;5.980;2023-03-21T08:50:23;101275.84;;;10.64;75.37
69574;BME280;62840;52.366;5.980;2023-03-21T08:52:50;101285.41;;;10.67;75.66
69574;BME280;62840;52.366;5.980;2023-03-21T08:55:16;101278.00;;;10.71;75.60
69574;BME280;62840;52.366;5.980;2023-03-21T08:57:43;101283.13;;;10.74;75.45
69574;BME280;62840;52.366;5.980;2023-03-21T09:00:12;101282.88;;;10.77;75.40
69574;BME280;62840;52.366;5.980;2023-03-21T09:02:44;101280.00;;;10.80;75.43
69574;BME280;62840;52.366;5.980;2023-03-21T09:05:11;101279.00;;;10.81;75.54
69574;BME280;62840;52.366;5.980;2023-03-21T09:07:37;101285.09;;;10.83;75.50
69574;BME280;62840;52.366;5.980;2023-03-21T09:10:05;101282.16;;;10.86;75.57
69574;BME280;62840;52.366;5.980;2023-03-21T09:12:32;101268.75;;;10.87;75.44
69574;BME280;62840;52.366;5.980;2023-03-21T09:14:58;101277.38;;;10.91;75.33
69574;BME280;62840;52.366;5.980;2023-03-21T09:17:24;101273.84;;;10.91;75.30
69574;BME280;62840;52.366;5.980;2023-03-21T09:19:53;101277.25;;;10.93;75.47
69574;BME280;62840;52.366;5.980;2023-03-21T09:22:19;101271.69;;;10.96;75.23
69574;BME280;62840;52.366;5.980;2023-03-21T09:24:45;101264.53;;;10.96;75.52
69574;BME280;62840;52.366;5.980;2023-03-21T09:27:12;101263.53;;;10.97;75.48
69574;BME280;62840;52.366;5.980;2023-03-21T09:29:38;101254.59;;;10.98;75.26
69574;BME280;62840;52.366;5.980;2023-03-21T09:32:04;101253.59;;;10.99;75.49
69574;BME280;62840;52.366;5.980;2023-03-21T09:34:30;101251.66;;;11.01;75.34
69574;BME280;62840;52.366;5.980;2023-03-21T09:36:58;101248.75;;;11.04;75.39
69574;BME280;62840;52.366;5.980;2023-03-21T09:39:24;101238.06;;;11.04;75.55
69574;BME280;62840;52.366;5.980;2023-03-21T09:42:00;101226.44;;;11.05;75.24
69574;BME280;62840;52.366;5.980;2023-03-21T09:44:43;101230.44;;;11.00;75.23
69574;BME280;62840;52.366;5.980;2023-03-21T09:47:19;101246.81;;;11.06;75.15
69574;BME280;62840;52.366;5.980;2023-03-21T09:49:48;101241.47;;;11.06;75.27
69574;BME280;62840;52.366;5.980;2023-03-21T09:52:23;101238.69;;;11.08;75.20
69574;BME280;62840;52.366;5.980;2023-03-21T09:54:53;101240.38;;;11.09;75.28
69574;BME280;62840;52.366;5.980;2023-03-21T09:57:27;101235.91;;;11.10;75.24
69574;BME280;62840;52.366;5.980;2023-03-21T09:59:57;101230.56;;;11.10;75.27
69574;BME280;62840;52.366;5.980;2023-03-21T10:02:35;101232.25;;;11.11;75.10
69574;BME280;62840;52.366;5.980;2023-03-21T10:05:10;101228.84;;;11.08;75.19
69574;BME280;62840;52.366;5.980;2023-03-21T10:07:48;101219.91;;;11.10;75.08
69574;BME280;62840;52.366;5.980;2023-03-21T10:10:20;101213.69;;;11.09;75.11
69574;BME280;62840;52.366;5.980;2023-03-21T10:12:51;101212.84;;;11.08;75.08
69574;BME280;62840;52.366;5.980;2023-03-21T10:15:21;101225.09;;;11.11;75.07
69574;BME280;62840;52.366;5.980;2023-03-21T10:17:53;101206.56;;;11.10;75.15
69574;BME280;62840;52.366;5.980;2023-03-21T10:20:28;101204.34;;;11.15;75.05
69574;BME280;62840;52.366;5.980;2023-03-21T10:23:00;101209.44;;;11.18;75.16
69574;BME280;62840;52.366;5.980;2023-03-21T10:25:31;101189.06;;;11.17;75.08
69574;BME280;62840;52.366;5.980;2023-03-21T10:28:01;101193.06;;;11.22;75.00
69574;BME280;62840;52.366;5.980;2023-03-21T10:30:35;101192.94;;;11.24;75.15
69574;BME280;62840;52.366;5.980;2023-03-21T10:33:06;101187.84;;;11.32;74.97
69574;BME280;62840;52.366;5.980;2023-03-21T10:35:37;101195.50;;;11.37;74.78
69574;BME280;62840;52.366;5.980;2023-03-21T10:38:14;101190.50;;;11.43;74.94
69574;BME280;62840;52.366;5.980;2023-03-21T10:40:44;101189.28;;;11.47;74.81
69574;BME280;62840;52.366;5.980;2023-03-21T10:43:19;101190.72;;;11.52;74.74
69574;BME280;62840;52.366;5.980;2023-03-21T10:45:55;101191.22;;;11.57;74.70
69574;BME280;62840;52.366;5.980;2023-03-21T10:48:22;101192.63;;;11.61;74.34
69574;BME280;62840;52.366;5.980;2023-03-21T10:50:52;101194.97;;;11.65;74.35
69574;BME280;62840;52.366;5.980;2023-03-21T10:53:28;101197.38;;;11.68;74.22
69574;BME280;62840;52.366;5.980;2023-03-21T10:56:00;101187.06;;;11.64;74.10
69574;BME280;62840;52.366;5.980;2023-03-21T10:58:35;101190.19;;;11.69;73.94
69574;BME280;62840;52.366;5.980;2023-03-21T11:01:09;101193.59;;;11.71;74.21
69574;BME280;62840;52.366;5.980;2023-03-21T11:03:38;101182.63;;;11.74;74.42
69574;BME280;62840;52.366;5.980;2023-03-21T11:06:11;101180.47;;;11.79;74.13
69574;BME280;62840;52.366;5.980;2023-03-21T11:08:45;101164.28;;;11.81;74.11
69574;BME280;62840;52.366;5.980;2023-03-21T11:11:19;101167.56;;;11.84;74.09
69574;BME280;62840;52.366;5.980;2023-03-21T11:13:55;101161.72;;;11.90;74.17
69574;BME280;62840;52.366;5.980;2023-03-21T11:16:25;101151.47;;;11.96;74.00
69574;BME280;62840;52.366;5.980;2023-03-21T11:18:59;101158.13;;;12.01;73.88
69574;BME280;62840;52.366;5.980;2023-03-21T11:21:27;101151.44;;;12.07;73.76
69574;BME280;62840;52.366;5.980;2023-03-21T11:24:03;101161.84;;;12.10;73.34
69574;BME280;62840;52.366;5.980;2023-03-21T11:26:33;101159.66;;;12.15;73.68
69574;BME280;62840;52.366;5.980;2023-03-21T11:29:14;101156.59;;;12.20;73.44
69574;BME280;62840;52.366;5.980;2023-03-21T11:31:50;101156.94;;;12.26;73.73
69574;BME280;62840;52.366;5.980;2023-03-21T11:34:24;101150.09;;;12.33;73.47
69574;BME280;62840;52.366;5.980;2023-03-21T11:36:57;101156.41;;;12.32;73.41
69574;BME280;62840;52.366;5.980;2023-03-21T11:39:31;101146.31;;;12.36;73.09
69574;BME280;62840;52.366;5.980;2023-03-21T11:41:59;101150.81;;;12.36;72.85
69574;BME280;62840;52.366;5.980;2023-03-21T11:44:28;101143.53;;;12.38;72.90
69574;BME280;62840;52.366;5.980;2023-03-21T11:46:57;101150.56;;;12.39;72.80
69574;BME280;62840;52.366;5.980;2023-03-21T11:49:24;101162.97;;;12.40;72.98
69574;BME280;62840;52.366;5.980;2023-03-21T11:52:08;101144.88;;;12.32;72.92
69574;BME280;62840;52.366;5.980;2023-03-21T11:55:02;101152.50;;;12.37;72.90
69574;BME280;62840;52.366;5.980;2023-03-21T11:57:56;101139.53;;;12.32;72.70
69574;BME280;62840;52.366;5.980;2023-03-21T12:00:36;101133.59;;;12.28;72.65
69574;BME280;62840;52.366;5.980;2023-03-21T12:06:18;101126.03;;;12.33;73.02
69574;BME280;62840;52.366;5.980;2023-03-21T12:09:01;101121.00;;;12.40;73.31
69574;BME280;62840;52.366;5.980;2023-03-21T12:11:48;101110.34;;;12.50;73.13
69574;BME280;62840;52.366;5.980;2023-03-21T12:14:26;101107.88;;;12.58;73.13
69574;BME280;62840;52.366;5.980;2023-03-21T12:17:05;101101.13;;;12.64;72.82
69574;BME280;62840;52.366;5.980;2023-03-21T12:19:54;101103.38;;;12.68;72.96
69574;BME280;62840;52.366;5.980;2023-03-21T12:22:39;101104.22;;;12.69;72.62
69574;BME280;62840;52.366;5.980;2023-03-21T12:25:21;101107.91;;;12.68;72.73
69574;BME280;62840;52.366;5.980;2023-03-21T12:28:02;101105.34;;;12.66;72.31
69574;BME280;62840;52.366;5.980;2023-03-21T12:30:47;101101.97;;;12.64;72.33
69574;BME280;62840;52.366;5.980;2023-03-21T12:33:36;101098.59;;;12.62;72.60
69574;BME280;62840;52.366;5.980;2023-03-21T12:36:30;101101.41;;;12.61;72.85
69574;BME280;62840;52.366;5.980;2023-03-21T12:39:21;101102.50;;;12.58;72.63
69574;BME280;62840;52.366;5.980;2023-03-21T12:42:02;101108.13;;;12.55;72.46
69574;BME280;62840;52.366;5.980;2023-03-21T12:44:43;101105.59;;;12.53;72.35
69574;BME280;62840;52.366;5.980;2023-03-21T12:47:16;101096.69;;;12.53;72.31
69574;BME280;62840;52.366;5.980;2023-03-21T12:49:48;101102.03;;;12.53;72.18
69574;BME280;62840;52.366;5.980;2023-03-21T12:52:22;101099.13;;;12.56;72.23
69574;BME280;62840;52.366;5.980;2023-03-21T12:54:55;101096.16;;;12.59;72.19
69574;BME280;62840;52.366;5.980;2023-03-21T12:57:28;101094.94;;;12.63;72.16
69574;BME280;62840;52.366;5.980;2023-03-21T13:00:04;101089.56;;;12.63;71.54
69574;BME280;62840;52.366;5.980;2023-03-21T13:02:41;101082.53;;;12.62;71.64
69574;BME280;62840;52.366;5.980;2023-03-21T13:05:17;101079.16;;;12.60;71.53
69574;BME280;62840;52.366;5.980;2023-03-21T13:07:49;101077.56;;;12.58;71.49
69574;BME280;62840;52.366;5.980;2023-03-21T13:10:20;101068.69;;;12.57;71.77